sensor_id;sensor_type;location;lat;lon;timestamp;P1;durP1;ratioP1;P2;durP2;ratioP2
5776;SDS011;2914;42.668;23.346;2022-09-09T00:01:02;16.00;;;12.87;;
5776;SDS011;2914;42.668;23.346;2022-09-09T00:03:42;18.50;;;12.70;;
5776;SDS011;2914;42.668;23.346;2022-09-09T00:06:15;12.13;;;11.03;;
5776;SDS011;2914;42.668;23.346;2022-09-09T00:08:48;15.90;;;10.80;;
5776;SDS011;2914;42.668;23.346;2022-09-09T00:11:21;16.10;;;12.10;;
5776;SDS011;2914;42.668;23.346;2022-09-09T00:13:53;24.13;;;12.20;;
5776;SDS011;2914;42.668;23.346;2022-09-09T00:16:25;13.23;;;11.80;;
5776;SDS011;2914;42.668;23.346;2022-09-09T00:18:59;20.57;;;12.37;;
5776;SDS011;2914;42.668;23.346;2022-09-09T00:21:32;13.93;;;11.90;;
5776;SDS011;2914;42.668;23.346;2022-09-09T00:24:09;12.77;;;11.57;;
5776;SDS011;2914;42.668;23.346;2022-09-09T00:26:41;12.90;;;11.63;;
5776;SDS011;2914;42.668;23.346;2022-09-09T00:29:14;17.33;;;13.03;;
5776;SDS011;2914;42.668;23.346;2022-09-09T00:31:47;18.03;;;13.03;;
5776;SDS011;2914;42.668;23.346;2022-09-09T00:34:18;17.37;;;12.30;;
5776;SDS011;2914;42.668;23.346;2022-09-09T00:36:50;14.40;;;12.10;;
5776;SDS011;2914;42.668;23.346;2022-09-09T00:39:31;14.60;;;12.00;;
5776;SDS011;2914;42.668;23.346;2022-09-09T00:42:05;14.60;;;12.50;;
5776;SDS011;2914;42.668;23.346;2022-09-09T00:44:42;18.13;;;12.53;;
5776;SDS011;2914;42.668;23.346;2022-09-09T00:47:24;12.37;;;11.17;;
5776;SDS011;2914;42.668;23.346;2022-09-09T00:49:59;13.90;;;12.50;;
5776;SDS011;2914;42.668;23.346;2022-09-09T00:52:33;15.43;;;12.80;;
5776;SDS011;2914;42.668;23.346;2022-09-09T00:55:07;12.83;;;11.67;;
5776;SDS011;2914;42.668;23.346;2022-09-09T00:57:38;28.80;;;11.70;;
5776;SDS011;2914;42.668;23.346;2022-09-09T01:00:18;14.87;;;12.27;;
5776;SDS011;2914;42.668;23.346;2022-09-09T01:03:02;15.63;;;12.40;;
5776;SDS011;2914;42.668;23.346;2022-09-09T01:05:41;16.23;;;11.40;;
5776;SDS011;2914;42.668;23.346;2022-09-09T01:08:14;20.40;;;12.00;;
5776;SDS011;2914;42.668;23.346;2022-09-09T01:10:44;14.47;;;12.97;;
5776;SDS011;2914;42.668;23.346;2022-09-09T01:13:20;18.33;;;12.40;;
5776;SDS011;2914;42.668;23.346;2022-09-09T01:15:49;19.63;;;12.70;;
5776;SDS011;2914;42.668;23.346;2022-09-09T01:18:21;15.90;;;11.90;;
5776;SDS011;2914;42.668;23.346;2022-09-09T01:20:54;12.40;;;11.30;;
5776;SDS011;2914;42.668;23.346;2022-09-09T01:23:33;16.10;;;11.53;;
5776;SDS011;2914;42.668;23.346;2022-09-09T01:26:09;13.60;;;12.17;;
5776;SDS011;2914;42.668;23.346;2022-09-09T01:28:51;13.03;;;11.33;;
5776;SDS011;2914;42.668;23.346;2022-09-09T01:31:22;14.73;;;11.47;;
5776;SDS011;2914;42.668;23.346;2022-09-09T01:33:53;12.93;;;11.30;;
5776;SDS011;2914;42.668;23.346;2022-09-09T01:36:25;14.17;;;11.33;;
5776;SDS011;2914;42.668;23.346;2022-09-09T01:38:59;14.23;;;10.70;;
5776;SDS011;2914;42.668;23.346;2022-09-09T01:41:37;10.97;;;9.83;;
5776;SDS011;2914;42.668;23.346;2022-09-09T01:44:07;20.20;;;10.20;;
5776;SDS011;2914;42.668;23.346;2022-09-09T01:46:37;13.57;;;8.97;;
5776;SDS011;2914;42.668;23.346;2022-09-09T01:49:09;12.67;;;10.43;;
5776;SDS011;2914;42.668;23.346;2022-09-09T01:51:39;12.00;;;10.80;;
5776;SDS011;2914;42.668;23.346;2022-09-09T01:54:10;18.80;;;11.27;;
5776;SDS011;2914;42.668;23.346;2022-09-09T01:56:42;11.70;;;10.70;;
5776;SDS011;2914;42.668;23.346;2022-09-09T01:59:17;11.70;;;10.47;;
5776;SDS011;2914;42.668;23.346;2022-09-09T02:01:55;12.10;;;10.70;;
5776;SDS011;2914;42.668;23.346;2022-09-09T02:04:30;16.93;;;11.90;;
5776;SDS011;2914;42.668;23.346;2022-09-09T02:07:05;13.17;;;10.60;;
5776;SDS011;2914;42.668;23.346;2022-09-09T02:09:36;12.20;;;11.03;;
5776;SDS011;2914;42.668;23.346;2022-09-09T02:12:10;12.10;;;11.00;;
5776;SDS011;2914;42.668;23.346;2022-09-09T02:14:42;15.97;;;10.17;;
5776;SDS011;2914;42.668;23.346;2022-09-09T02:17:15;13.57;;;10.73;;
5776;SDS011;2914;42.668;23.346;2022-09-09T02:19:46;12.13;;;11.10;;
5776;SDS011;2914;42.668;23.346;2022-09-09T02:22:18;17.93;;;12.23;;
5776;SDS011;2914;42.668;23.346;2022-09-09T02:24:50;15.53;;;11.63;;
5776;SDS011;2914;42.668;23.346;2022-09-09T02:27:22;23.90;;;12.20;;
5776;SDS011;2914;42.668;23.346;2022-09-09T02:29:52;18.53;;;11.90;;
5776;SDS011;2914;42.668;23.346;2022-09-09T02:32:23;12.93;;;11.73;;
5776;SDS011;2914;42.668;23.346;2022-09-09T02:34:54;13.60;;;10.97;;
5776;SDS011;2914;42.668;23.346;2022-09-09T02:37:26;17.40;;;10.83;;
5776;SDS011;2914;42.668;23.346;2022-09-09T02:39:57;15.33;;;10.90;;
5776;SDS011;2914;42.668;23.346;2022-09-09T02:42:27;15.70;;;12.07;;
5776;SDS011;2914;42.668;23.346;2022-09-09T02:44:56;19.20;;;11.40;;
5776;SDS011;2914;42.668;23.346;2022-09-09T02:47:26;13.13;;;10.73;;
5776;SDS011;2914;42.668;23.346;2022-09-09T02:50:02;17.57;;;11.57;;
5776;SDS011;2914;42.668;23.346;2022-09-09T02:52:38;12.57;;;11.30;;
5776;SDS011;2914;42.668;23.346;2022-09-09T02:55:14;13.77;;;11.17;;
5776;SDS011;2914;42.668;23.346;2022-09-09T02:57:47;13.10;;;11.83;;
5776;SDS011;2914;42.668;23.346;2022-09-09T03:00:22;12.33;;;11.13;;
5776;SDS011;2914;42.668;23.346;2022-09-09T03:02:53;13.33;;;11.90;;
5776;SDS011;2914;42.668;23.346;2022-09-09T03:05:23;17.40;;;12.20;;
5776;SDS011;2914;42.668;23.346;2022-09-09T03:07:52;15.00;;;12.30;;
5776;SDS011;2914;42.668;23.346;2022-09-09T03:10:21;12.27;;;11.10;;
5776;SDS011;2914;42.668;23.346;2022-09-09T03:12:50;14.07;;;11.90;;
5776;SDS011;2914;42.668;23.346;2022-09-09T03:15:19;13.23;;;11.90;;
5776;SDS011;2914;42.668;23.346;2022-09-09T03:17:48;13.17;;;11.87;;
5776;SDS011;2914;42.668;23.346;2022-09-09T03:20:19;20.13;;;12.87;;
5776;SDS011;2914;42.668;23.346;2022-09-09T03:22:48;19.60;;;12.07;;
5776;SDS011;2914;42.668;23.346;2022-09-09T03:25:17;13.97;;;12.60;;
5776;SDS011;2914;42.668;23.346;2022-09-09T03:27:46;14.90;;;13.40;;
5776;SDS011;2914;42.668;23.346;2022-09-09T03:30:16;19.67;;;17.07;;
5776;SDS011;2914;42.668;23.346;2022-09-09T03:32:45;29.00;;;20.07;;
5776;SDS011;2914;42.668;23.346;2022-09-09T03:35:14;35.03;;;26.50;;
5776;SDS011;2914;42.668;23.346;2022-09-09T03:37:43;177.73;;;120.87;;
5776;SDS011;2914;42.668;23.346;2022-09-09T03:40:12;282.80;;;197.87;;
5776;SDS011;2914;42.668;23.346;2022-09-09T03:42:42;295.07;;;204.00;;
5776;SDS011;2914;42.668;23.346;2022-09-09T03:45:11;68.33;;;48.23;;
5776;SDS011;2914;42.668;23.346;2022-09-09T03:47:40;55.30;;;37.63;;
5776;SDS011;2914;42.668;23.346;2022-09-09T03:50:09;73.93;;;42.47;;
5776;SDS011;2914;42.668;23.346;2022-09-09T03:52:39;26.23;;;21.27;;
5776;SDS011;2914;42.668;23.346;2022-09-09T03:55:09;28.63;;;15.60;;
5776;SDS011;2914;42.668;23.346;2022-09-09T03:57:38;20.40;;;16.70;;
5776;SDS011;2914;42.668;23.346;2022-09-09T04:00:09;19.70;;;15.30;;
5776;SDS011;2914;42.668;23.346;2022-09-09T04:02:47;25.20;;;15.87;;
5776;SDS011;2914;42.668;23.346;2022-09-09T04:05:20;15.30;;;13.70;;
5776;SDS011;2914;42.668;23.346;2022-09-09T04:07:50;14.30;;;12.80;;
5776;SDS011;2914;42.668;23.346;2022-09-09T04:10:28;20.50;;;13.50;;
5776;SDS011;2914;42.668;23.346;2022-09-09T04:12:57;14.27;;;12.83;;
5776;SDS011;2914;42.668;23.346;2022-09-09T04:15:35;18.87;;;13.50;;
5776;SDS011;2914;42.668;23.346;2022-09-09T04:18:04;19.93;;;13.07;;
5776;SDS011;2914;42.668;23.346;2022-09-09T04:20:33;18.07;;;12.73;;
5776;SDS011;2914;42.668;23.346;2022-09-09T04:23:02;19.33;;;14.30;;
5776;SDS011;2914;42.668;23.346;2022-09-09T04:25:32;27.23;;;13.90;;
5776;SDS011;2914;42.668;23.346;2022-09-09T04:28:01;15.93;;;13.67;;
5776;SDS011;2914;42.668;23.346;2022-09-09T04:30:30;19.30;;;14.30;;
5776;SDS011;2914;42.668;23.346;2022-09-09T04:33:01;19.10;;;16.03;;
5776;SDS011;2914;42.668;23.346;2022-09-09T04:35:30;19.30;;;14.93;;
5776;SDS011;2914;42.668;23.346;2022-09-09T04:37:59;23.93;;;14.43;;
5776;SDS011;2914;42.668;23.346;2022-09-09T04:40:36;18.40;;;13.73;;
5776;SDS011;2914;42.668;23.346;2022-09-09T04:43:08;16.57;;;14.73;;
5776;SDS011;2914;42.668;23.346;2022-09-09T04:45:37;25.63;;;14.93;;
5776;SDS011;2914;42.668;23.346;2022-09-09T04:48:09;19.97;;;14.80;;
5776;SDS011;2914;42.668;23.346;2022-09-09T04:50:38;20.93;;;14.67;;
5776;SDS011;2914;42.668;23.346;2022-09-09T04:53:08;16.17;;;14.63;;
5776;SDS011;2914;42.668;23.346;2022-09-09T04:55:37;26.13;;;15.00;;
5776;SDS011;2914;42.668;23.346;2022-09-09T04:58:07;36.93;;;14.97;;
5776;SDS011;2914;42.668;23.346;2022-09-09T05:00:37;23.13;;;15.23;;
5776;SDS011;2914;42.668;23.346;2022-09-09T05:03:06;19.17;;;14.37;;
5776;SDS011;2914;42.668;23.346;2022-09-09T05:05:35;32.50;;;15.57;;
5776;SDS011;2914;42.668;23.346;2022-09-09T05:08:05;22.60;;;15.70;;
5776;SDS011;2914;42.668;23.346;2022-09-09T05:10:37;30.63;;;15.17;;
5776;SDS011;2914;42.668;23.346;2022-09-09T05:13:08;24.97;;;15.77;;
5776;SDS011;2914;42.668;23.346;2022-09-09T05:15:37;16.40;;;14.80;;
5776;SDS011;2914;42.668;23.346;2022-09-09T05:18:07;24.80;;;14.37;;
5776;SDS011;2914;42.668;23.346;2022-09-09T05:20:36;31.67;;;15.70;;
5776;SDS011;2914;42.668;23.346;2022-09-09T05:23:05;22.23;;;15.17;;
5776;SDS011;2914;42.668;23.346;2022-09-09T05:25:35;20.10;;;14.47;;
5776;SDS011;2914;42.668;23.346;2022-09-09T05:28:04;23.03;;;14.80;;
5776;SDS011;2914;42.668;23.346;2022-09-09T05:30:34;21.23;;;13.60;;
5776;SDS011;2914;42.668;23.346;2022-09-09T05:33:03;19.33;;;13.60;;
5776;SDS011;2914;42.668;23.346;2022-09-09T05:35:33;14.83;;;13.20;;
5776;SDS011;2914;42.668;23.346;2022-09-09T05:38:02;15.80;;;12.83;;
5776;SDS011;2914;42.668;23.346;2022-09-09T05:40:40;20.10;;;12.00;;
5776;SDS011;2914;42.668;23.346;2022-09-09T05:43:16;16.13;;;12.40;;
5776;SDS011;2914;42.668;23.346;2022-09-09T05:45:46;14.27;;;10.40;;
5776;SDS011;2914;42.668;23.346;2022-09-09T05:48:15;15.43;;;10.70;;
5776;SDS011;2914;42.668;23.346;2022-09-09T05:50:52;18.10;;;10.53;;
5776;SDS011;2914;42.668;23.346;2022-09-09T05:53:21;9.53;;;8.63;;
5776;SDS011;2914;42.668;23.346;2022-09-09T05:55:59;11.80;;;9.87;;
5776;SDS011;2914;42.668;23.346;2022-09-09T05:58:29;12.17;;;8.83;;
5776;SDS011;2914;42.668;23.346;2022-09-09T06:01:03;18.77;;;10.00;;
5776;SDS011;2914;42.668;23.346;2022-09-09T06:03:33;23.10;;;9.90;;
5776;SDS011;2914;42.668;23.346;2022-09-09T06:06:04;21.13;;;10.47;;
5776;SDS011;2914;42.668;23.346;2022-09-09T06:08:35;11.90;;;10.63;;
5776;SDS011;2914;42.668;23.346;2022-09-09T06:11:06;17.73;;;10.20;;
5776;SDS011;2914;42.668;23.346;2022-09-09T06:13:37;13.33;;;11.00;;
5776;SDS011;2914;42.668;23.346;2022-09-09T06:16:06;21.50;;;11.67;;
5776;SDS011;2914;42.668;23.346;2022-09-09T06:18:37;18.30;;;11.57;;
5776;SDS011;2914;42.668;23.346;2022-09-09T06:21:08;19.97;;;12.00;;
5776;SDS011;2914;42.668;23.346;2022-09-09T06:23:39;26.07;;;11.20;;
5776;SDS011;2914;42.668;23.346;2022-09-09T06:26:09;16.50;;;10.97;;
5776;SDS011;2914;42.668;23.346;2022-09-09T06:28:40;15.43;;;10.13;;
5776;SDS011;2914;42.668;23.346;2022-09-09T06:31:09;19.33;;;10.77;;
5776;SDS011;2914;42.668;23.346;2022-09-09T06:33:40;12.40;;;11.07;;
5776;SDS011;2914;42.668;23.346;2022-09-09T06:36:11;14.87;;;10.17;;
5776;SDS011;2914;42.668;23.346;2022-09-09T06:38:41;14.60;;;10.17;;
5776;SDS011;2914;42.668;23.346;2022-09-09T06:41:12;18.20;;;11.13;;
5776;SDS011;2914;42.668;23.346;2022-09-09T06:43:43;21.90;;;10.13;;
5776;SDS011;2914;42.668;23.346;2022-09-09T06:46:13;11.90;;;10.80;;
5776;SDS011;2914;42.668;23.346;2022-09-09T06:48:44;13.10;;;9.50;;
5776;SDS011;2914;42.668;23.346;2022-09-09T06:51:14;13.70;;;9.10;;
5776;SDS011;2914;42.668;23.346;2022-09-09T06:53:45;11.03;;;9.73;;
5776;SDS011;2914;42.668;23.346;2022-09-09T06:56:18;16.10;;;9.03;;
5776;SDS011;2914;42.668;23.346;2022-09-09T06:58:49;9.60;;;8.60;;
5776;SDS011;2914;42.668;23.346;2022-09-09T07:01:21;23.93;;;8.63;;
5776;SDS011;2914;42.668;23.346;2022-09-09T07:03:52;10.40;;;8.10;;
5776;SDS011;2914;42.668;23.346;2022-09-09T07:06:25;8.40;;;7.53;;
5776;SDS011;2914;42.668;23.346;2022-09-09T07:08:55;12.00;;;7.70;;
5776;SDS011;2914;42.668;23.346;2022-09-09T07:11:28;12.23;;;8.27;;
5776;SDS011;2914;42.668;23.346;2022-09-09T07:13:58;9.03;;;8.10;;
5776;SDS011;2914;42.668;23.346;2022-09-09T07:16:28;10.40;;;7.80;;
5776;SDS011;2914;42.668;23.346;2022-09-09T07:19:00;17.57;;;8.00;;
5776;SDS011;2914;42.668;23.346;2022-09-09T07:21:30;10.67;;;7.70;;
5776;SDS011;2914;42.668;23.346;2022-09-09T07:24:00;22.23;;;7.67;;
5776;SDS011;2914;42.668;23.346;2022-09-09T07:26:32;14.33;;;7.40;;
5776;SDS011;2914;42.668;23.346;2022-09-09T07:29:02;9.63;;;8.47;;
5776;SDS011;2914;42.668;23.346;2022-09-09T07:31:34;10.40;;;8.57;;
5776;SDS011;2914;42.668;23.346;2022-09-09T07:34:05;10.90;;;8.43;;
5776;SDS011;2914;42.668;23.346;2022-09-09T07:36:36;10.30;;;8.47;;
5776;SDS011;2914;42.668;23.346;2022-09-09T07:39:07;9.87;;;7.33;;
5776;SDS011;2914;42.668;23.346;2022-09-09T07:41:37;9.40;;;8.47;;
5776;SDS011;2914;42.668;23.346;2022-09-09T07:44:09;10.50;;;8.03;;
5776;SDS011;2914;42.668;23.346;2022-09-09T07:46:40;10.87;;;8.37;;
5776;SDS011;2914;42.668;23.346;2022-09-09T07:49:11;24.67;;;8.90;;
5776;SDS011;2914;42.668;23.346;2022-09-09T07:51:41;14.90;;;7.63;;
5776;SDS011;2914;42.668;23.346;2022-09-09T07:54:12;11.83;;;7.77;;
5776;SDS011;2914;42.668;23.346;2022-09-09T07:56:44;7.73;;;7.03;;
5776;SDS011;2914;42.668;23.346;2022-09-09T07:59:15;7.33;;;6.70;;
5776;SDS011;2914;42.668;23.346;2022-09-09T08:01:46;17.43;;;7.43;;
5776;SDS011;2914;42.668;23.346;2022-09-09T08:04:18;11.07;;;6.70;;
5776;SDS011;2914;42.668;23.346;2022-09-09T08:06:49;7.87;;;7.17;;
5776;SDS011;2914;42.668;23.346;2022-09-09T08:09:20;8.27;;;6.57;;
5776;SDS011;2914;42.668;23.346;2022-09-09T08:11:51;9.10;;;6.70;;
5776;SDS011;2914;42.668;23.346;2022-09-09T08:14:20;7.20;;;6.50;;
5776;SDS011;2914;42.668;23.346;2022-09-09T08:16:50;14.13;;;7.47;;
5776;SDS011;2914;42.668;23.346;2022-09-09T08:19:20;9.30;;;6.53;;
5776;SDS011;2914;42.668;23.346;2022-09-09T08:21:49;8.53;;;6.90;;
5776;SDS011;2914;42.668;23.346;2022-09-09T08:24:18;10.87;;;6.97;;
5776;SDS011;2914;42.668;23.346;2022-09-09T08:26:49;9.50;;;6.50;;
5776;SDS011;2914;42.668;23.346;2022-09-09T08:29:18;16.20;;;7.27;;
5776;SDS011;2914;42.668;23.346;2022-09-09T08:31:48;11.23;;;7.17;;
5776;SDS011;2914;42.668;23.346;2022-09-09T08:34:18;10.50;;;7.53;;
5776;SDS011;2914;42.668;23.346;2022-09-09T08:36:49;7.83;;;7.23;;
5776;SDS011;2914;42.668;23.346;2022-09-09T08:39:20;7.37;;;6.60;;
5776;SDS011;2914;42.668;23.346;2022-09-09T08:42:03;8.67;;;7.03;;
5776;SDS011;2914;42.668;23.346;2022-09-09T08:45:02;8.57;;;7.67;;
5776;SDS011;2914;42.668;23.346;2022-09-09T08:47:44;11.60;;;7.57;;
5776;SDS011;2914;42.668;23.346;2022-09-09T08:50:17;8.77;;;7.70;;
5776;SDS011;2914;42.668;23.346;2022-09-09T08:52:52;8.93;;;7.80;;
5776;SDS011;2914;42.668;23.346;2022-09-09T08:55:31;8.60;;;7.70;;
5776;SDS011;2914;42.668;23.346;2022-09-09T08:58:08;14.30;;;8.00;;
5776;SDS011;2914;42.668;23.346;2022-09-09T09:01:13;11.23;;;7.93;;
5776;SDS011;2914;42.668;23.346;2022-09-09T09:03:48;8.70;;;7.87;;
5776;SDS011;2914;42.668;23.346;2022-09-09T09:06:23;15.37;;;7.40;;
5776;SDS011;2914;42.668;23.346;2022-09-09T09:09:02;10.10;;;7.63;;
5776;SDS011;2914;42.668;23.346;2022-09-09T09:11:35;8.90;;;7.93;;
5776;SDS011;2914;42.668;23.346;2022-09-09T09:14:15;15.00;;;9.70;;
5776;SDS011;2914;42.668;23.346;2022-09-09T09:16:51;11.97;;;7.63;;
5776;SDS011;2914;42.668;23.346;2022-09-09T09:19:24;14.70;;;7.30;;
5776;SDS011;2914;42.668;23.346;2022-09-09T09:21:57;10.43;;;8.30;;
5776;SDS011;2914;42.668;23.346;2022-09-09T09:24:30;14.00;;;7.73;;
5776;SDS011;2914;42.668;23.346;2022-09-09T09:27:04;18.30;;;7.70;;
5776;SDS011;2914;42.668;23.346;2022-09-09T09:29:37;13.50;;;7.83;;
5776;SDS011;2914;42.668;23.346;2022-09-09T09:32:08;14.33;;;7.93;;
5776;SDS011;2914;42.668;23.346;2022-09-09T09:34:39;8.43;;;7.47;;
5776;SDS011;2914;42.668;23.346;2022-09-09T09:37:12;10.93;;;7.97;;
5776;SDS011;2914;42.668;23.346;2022-09-09T09:39:46;9.20;;;7.80;;
5776;SDS011;2914;42.668;23.346;2022-09-09T09:42:16;8.10;;;7.30;;
5776;SDS011;2914;42.668;23.346;2022-09-09T09:44:46;10.53;;;7.57;;
5776;SDS011;2914;42.668;23.346;2022-09-09T09:47:16;13.70;;;8.07;;
5776;SDS011;2914;42.668;23.346;2022-09-09T09:49:52;8.73;;;7.60;;
5776;SDS011;2914;42.668;23.346;2022-09-09T09:52:23;15.37;;;7.70;;
5776;SDS011;2914;42.668;23.346;2022-09-09T09:54:54;9.70;;;7.70;;
5776;SDS011;2914;42.668;23.346;2022-09-09T09:57:26;15.73;;;8.20;;
5776;SDS011;2914;42.668;23.346;2022-09-09T10:00:02;13.40;;;7.43;;
5776;SDS011;2914;42.668;23.346;2022-09-09T10:02:37;17.30;;;7.60;;
5776;SDS011;2914;42.668;23.346;2022-09-09T10:05:13;17.97;;;7.53;;
5776;SDS011;2914;42.668;23.346;2022-09-09T10:07:44;9.03;;;7.60;;
5776;SDS011;2914;42.668;23.346;2022-09-09T10:10:15;14.17;;;7.70;;
5776;SDS011;2914;42.668;23.346;2022-09-09T10:12:49;8.90;;;7.67;;
5776;SDS011;2914;42.668;23.346;2022-09-09T10:15:26;10.50;;;8.10;;
5776;SDS011;2914;42.668;23.346;2022-09-09T10:18:04;12.93;;;7.97;;
5776;SDS011;2914;42.668;23.346;2022-09-09T10:20:37;10.53;;;7.07;;
5776;SDS011;2914;42.668;23.346;2022-09-09T10:23:11;13.67;;;8.00;;
5776;SDS011;2914;42.668;23.346;2022-09-09T10:25:58;19.43;;;8.10;;
5776;SDS011;2914;42.668;23.346;2022-09-09T10:31:22;8.33;;;7.53;;
5776;SDS011;2914;42.668;23.346;2022-09-09T10:33:55;17.80;;;8.77;;
5776;SDS011;2914;42.668;23.346;2022-09-09T10:36:38;9.77;;;7.60;;
5776;SDS011;2914;42.668;23.346;2022-09-09T10:39:14;8.37;;;7.77;;
5776;SDS011;2914;42.668;23.346;2022-09-09T10:41:53;8.73;;;7.73;;
5776;SDS011;2914;42.668;23.346;2022-09-09T10:44:26;9.63;;;8.10;;
5776;SDS011;2914;42.668;23.346;2022-09-09T10:47:12;16.07;;;8.60;;
5776;SDS011;2914;42.668;23.346;2022-09-09T10:50:20;8.70;;;8.00;;
5776;SDS011;2914;42.668;23.346;2022-09-09T10:53:08;14.87;;;8.60;;
5776;SDS011;2914;42.668;23.346;2022-09-09T10:55:40;10.57;;;7.60;;
5776;SDS011;2914;42.668;23.346;2022-09-09T10:58:14;13.07;;;8.33;;
5776;SDS011;2914;42.668;23.346;2022-09-09T11:00:45;15.37;;;8.30;;
5776;SDS011;2914;42.668;23.346;2022-09-09T11:03:18;9.80;;;8.90;;
5776;SDS011;2914;42.668;23.346;2022-09-09T11:05:49;15.10;;;9.43;;
5776;SDS011;2914;42.668;23.346;2022-09-09T11:08:23;22.97;;;9.10;;
5776;SDS011;2914;42.668;23.346;2022-09-09T11:10:57;17.10;;;8.70;;
5776;SDS011;2914;42.668;23.346;2022-09-09T11:13:28;14.30;;;8.60;;
5776;SDS011;2914;42.668;23.346;2022-09-09T11:16:01;14.97;;;9.10;;
5776;SDS011;2914;42.668;23.346;2022-09-09T11:18:33;28.93;;;8.47;;
5776;SDS011;2914;42.668;23.346;2022-09-09T11:21:05;10.10;;;9.00;;
5776;SDS011;2914;42.668;23.346;2022-09-09T11:23:38;16.40;;;9.30;;
5776;SDS011;2914;42.668;23.346;2022-09-09T11:26:10;16.20;;;9.60;;
5776;SDS011;2914;42.668;23.346;2022-09-09T11:28:44;10.43;;;9.30;;
5776;SDS011;2914;42.668;23.346;2022-09-09T11:31:20;12.90;;;9.33;;
5776;SDS011;2914;42.668;23.346;2022-09-09T11:33:56;20.40;;;9.53;;
5776;SDS011;2914;42.668;23.346;2022-09-09T11:36:33;9.90;;;8.80;;
5776;SDS011;2914;42.668;23.346;2022-09-09T11:42:16;14.57;;;10.20;;
5776;SDS011;2914;42.668;23.346;2022-09-09T11:44:48;18.90;;;10.90;;
5776;SDS011;2914;42.668;23.346;2022-09-09T11:47:20;20.40;;;10.70;;
5776;SDS011;2914;42.668;23.346;2022-09-09T11:49:53;12.20;;;10.07;;
5776;SDS011;2914;42.668;23.346;2022-09-09T11:52:23;15.80;;;10.43;;
5776;SDS011;2914;42.668;23.346;2022-09-09T11:54:55;13.90;;;10.70;;
5776;SDS011;2914;42.668;23.346;2022-09-09T11:57:26;13.80;;;11.10;;
5776;SDS011;2914;42.668;23.346;2022-09-09T11:59:57;12.83;;;11.50;;
5776;SDS011;2914;42.668;23.346;2022-09-09T12:02:27;17.03;;;10.67;;
5776;SDS011;2914;42.668;23.346;2022-09-09T12:04:59;15.20;;;11.10;;
5776;SDS011;2914;42.668;23.346;2022-09-09T12:07:35;12.90;;;10.10;;
5776;SDS011;2914;42.668;23.346;2022-09-09T12:10:20;18.50;;;10.30;;
5776;SDS011;2914;42.668;23.346;2022-09-09T12:12:51;14.43;;;10.20;;
5776;SDS011;2914;42.668;23.346;2022-09-09T12:15:25;14.90;;;10.20;;
5776;SDS011;2914;42.668;23.346;2022-09-09T12:17:56;13.10;;;10.27;;
5776;SDS011;2914;42.668;23.346;2022-09-09T12:20:30;16.53;;;11.60;;
5776;SDS011;2914;42.668;23.346;2022-09-09T12:23:05;19.57;;;10.23;;
5776;SDS011;2914;42.668;23.346;2022-09-09T12:25:58;15.83;;;10.57;;
5776;SDS011;2914;42.668;23.346;2022-09-09T12:28:50;23.97;;;10.80;;
5776;SDS011;2914;42.668;23.346;2022-09-09T12:31:24;15.07;;;10.80;;
5776;SDS011;2914;42.668;23.346;2022-09-09T12:34:02;19.73;;;11.33;;
5776;SDS011;2914;42.668;23.346;2022-09-09T12:36:33;18.70;;;10.93;;
5776;SDS011;2914;42.668;23.346;2022-09-09T12:39:10;14.70;;;10.47;;
5776;SDS011;2914;42.668;23.346;2022-09-09T12:41:51;16.27;;;10.60;;
5776;SDS011;2914;42.668;23.346;2022-09-09T12:44:24;17.00;;;10.63;;
5776;SDS011;2914;42.668;23.346;2022-09-09T12:46:55;21.37;;;10.10;;
5776;SDS011;2914;42.668;23.346;2022-09-09T12:49:29;18.73;;;10.20;;
5776;SDS011;2914;42.668;23.346;2022-09-09T12:52:04;20.40;;;11.37;;
5776;SDS011;2914;42.668;23.346;2022-09-09T12:54:36;20.37;;;11.30;;
5776;SDS011;2914;42.668;23.346;2022-09-09T12:57:09;16.80;;;11.33;;
5776;SDS011;2914;42.668;23.346;2022-09-09T12:59:41;15.40;;;10.60;;
5776;SDS011;2914;42.668;23.346;2022-09-09T13:02:16;16.83;;;10.50;;
5776;SDS011;2914;42.668;23.346;2022-09-09T13:04:46;14.57;;;11.07;;
5776;SDS011;2914;42.668;23.346;2022-09-09T13:07:16;16.93;;;11.67;;
5776;SDS011;2914;42.668;23.346;2022-09-09T13:09:46;13.07;;;11.40;;
5776;SDS011;2914;42.668;23.346;2022-09-09T13:12:17;17.77;;;11.73;;
5776;SDS011;2914;42.668;23.346;2022-09-09T13:14:49;17.30;;;11.23;;
5776;SDS011;2914;42.668;23.346;2022-09-09T13:17:21;18.40;;;11.13;;
5776;SDS011;2914;42.668;23.346;2022-09-09T13:19:53;18.00;;;10.70;;
5776;SDS011;2914;42.668;23.346;2022-09-09T13:22:29;15.43;;;12.27;;
5776;SDS011;2914;42.668;23.346;2022-09-09T13:25:04;12.83;;;10.00;;
5776;SDS011;2914;42.668;23.346;2022-09-09T13:27:36;15.90;;;11.87;;
5776;SDS011;2914;42.668;23.346;2022-09-09T13:33:06;14.33;;;11.37;;
5776;SDS011;2914;42.668;23.346;2022-09-09T13:35:54;14.87;;;11.33;;
5776;SDS011;2914;42.668;23.346;2022-09-09T13:38:25;16.60;;;10.67;;
5776;SDS011;2914;42.668;23.346;2022-09-09T13:41:05;22.30;;;11.20;;
5776;SDS011;2914;42.668;23.346;2022-09-09T13:43:37;11.83;;;10.63;;
5776;SDS011;2914;42.668;23.346;2022-09-09T13:46:22;19.00;;;11.13;;
5776;SDS011;2914;42.668;23.346;2022-09-09T13:48:55;14.30;;;10.97;;
5776;SDS011;2914;42.668;23.346;2022-09-09T13:51:33;14.40;;;10.33;;
5776;SDS011;2914;42.668;23.346;2022-09-09T13:54:04;16.27;;;10.57;;
5776;SDS011;2914;42.668;23.346;2022-09-09T13:56:34;13.83;;;11.47;;
5776;SDS011;2914;42.668;23.346;2022-09-09T13:59:06;18.90;;;11.40;;
5776;SDS011;2914;42.668;23.346;2022-09-09T14:01:38;25.47;;;10.57;;
5776;SDS011;2914;42.668;23.346;2022-09-09T14:04:07;28.60;;;11.10;;
5776;SDS011;2914;42.668;23.346;2022-09-09T14:06:37;20.83;;;11.47;;
5776;SDS011;2914;42.668;23.346;2022-09-09T14:09:07;22.60;;;11.27;;
5776;SDS011;2914;42.668;23.346;2022-09-09T14:11:46;17.60;;;10.90;;
5776;SDS011;2914;42.668;23.346;2022-09-09T14:14:15;14.93;;;10.93;;
5776;SDS011;2914;42.668;23.346;2022-09-09T14:16:44;15.43;;;11.30;;
5776;SDS011;2914;42.668;23.346;2022-09-09T14:19:13;15.40;;;9.93;;
5776;SDS011;2914;42.668;23.346;2022-09-09T14:21:42;24.90;;;10.37;;
5776;SDS011;2914;42.668;23.346;2022-09-09T14:24:11;14.73;;;10.10;;
5776;SDS011;2914;42.668;23.346;2022-09-09T14:26:40;21.50;;;9.97;;
5776;SDS011;2914;42.668;23.346;2022-09-09T14:29:09;16.33;;;10.00;;
5776;SDS011;2914;42.668;23.346;2022-09-09T14:31:38;22.23;;;10.70;;
5776;SDS011;2914;42.668;23.346;2022-09-09T14:34:07;16.20;;;10.90;;
5776;SDS011;2914;42.668;23.346;2022-09-09T14:36:37;16.63;;;9.67;;
5776;SDS011;2914;42.668;23.346;2022-09-09T14:39:07;18.40;;;10.70;;
5776;SDS011;2914;42.668;23.346;2022-09-09T14:41:36;14.80;;;10.07;;
5776;SDS011;2914;42.668;23.346;2022-09-09T14:44:05;19.30;;;10.53;;
5776;SDS011;2914;42.668;23.346;2022-09-09T14:46:35;13.53;;;9.50;;
5776;SDS011;2914;42.668;23.346;2022-09-09T14:49:03;19.93;;;9.73;;
5776;SDS011;2914;42.668;23.346;2022-09-09T14:51:33;19.07;;;9.30;;
5776;SDS011;2914;42.668;23.346;2022-09-09T14:54:02;10.90;;;9.33;;
5776;SDS011;2914;42.668;23.346;2022-09-09T14:56:32;15.77;;;9.73;;
5776;SDS011;2914;42.668;23.346;2022-09-09T14:59:02;18.70;;;9.77;;
5776;SDS011;2914;42.668;23.346;2022-09-09T15:01:31;10.40;;;9.23;;
5776;SDS011;2914;42.668;23.346;2022-09-09T15:04:01;12.37;;;9.73;;
5776;SDS011;2914;42.668;23.346;2022-09-09T15:06:32;17.50;;;9.70;;
5776;SDS011;2914;42.668;23.346;2022-09-09T15:09:04;29.80;;;9.87;;
5776;SDS011;2914;42.668;23.346;2022-09-09T15:11:34;16.17;;;10.10;;
5776;SDS011;2914;42.668;23.346;2022-09-09T15:14:05;12.33;;;9.30;;
5776;SDS011;2914;42.668;23.346;2022-09-09T15:16:35;21.20;;;9.30;;
5776;SDS011;2914;42.668;23.346;2022-09-09T15:19:05;15.87;;;9.43;;
5776;SDS011;2914;42.668;23.346;2022-09-09T15:21:35;21.47;;;10.30;;